This is the latest recevied weather packets stored in our database for station/object KY0TEQ-13. If no packets are shown the sender has not sent any weather packets the latest 10 day(s).
| Time | Temp. | Humidity | Pressure | Rain* | Wind** | Luminosity | Snow |
|---|---|---|---|---|---|---|---|
| 1788563687 | 26.67° C | 29% | 1306.6 hPa | 0 mm | - | 219 W/m² | - |
| 1788563382 | 26.11° C | 29% | 1306.8 hPa | 0 mm | - | 320 W/m² | - |
| 1788563081 | 26.67° C | 28% | 1306.7 hPa | 0 mm | - | 107 W/m² | - |
| 1788562776 | 26.67° C | 29% | 1306.7 hPa | 0 mm | - | 372 W/m² | - |
| 1788562474 | 26.67° C | 28% | 1306.8 hPa | 0 mm | - | 375 W/m² | - |
| 1788562169 | 25° C | 30% | 1306.8 hPa | 0 mm | - | 394 W/m² | - |
| 1788561865 | 25° C | 31% | 1306.9 hPa | 0 mm | - | 72 W/m² | - |
| 1788561565 | 25.56° C | 29% | 1306.8 hPa | 0 mm | - | 63 W/m² | - |
| 1788561264 | 26.11° C | 29% | 1306.7 hPa | 0 mm | - | 67 W/m² | - |
| 1788560960 | 26.11° C | 28% | 1306.9 hPa | 0 mm | - | 444 W/m² | - |
| 1788560655 | 25.56° C | 30% | 1306.8 hPa | 0 mm | - | 73 W/m² | - |
| 1788560355 | 26.67° C | 28% | 1306.9 hPa | 0 mm | - | 73 W/m² | - |
| 1788560050 | 25.56° C | 29% | 1306.9 hPa | 0 mm | - | 460 W/m² | - |
| 1788559745 | 25.56° C | 30% | 1307.1 hPa | 0 mm | - | 270 W/m² | - |
| 1788559444 | 25.56° C | 30% | 1306.9 hPa | 0 mm | - | 106 W/m² | - |
| 1788559139 | 25° C | 30% | 1307.2 hPa | 0 mm | - | 96 W/m² | - |
| 1788558835 | 25.56° C | 30% | 1307.1 hPa | 0 mm | - | 87 W/m² | - |
| 1788558531 | 27.22° C | 27% | 1307.1 hPa | 0 mm | - | 95 W/m² | - |
| 1788558226 | 26.11° C | 29% | 1307.3 hPa | 0 mm | - | 580 W/m² | - |
| 1788557925 | 27.22° C | 29% | 1307.1 hPa | 0 mm | - | 587 W/m² | - |
| 1788557620 | 27.22° C | 28% | 1307.4 hPa | 0 mm | - | 608 W/m² | - |
| 1788557316 | 27.22° C | 29% | 1307.3 hPa | 0 mm | - | 628 W/m² | - |
| 1788557015 | 25.56° C | 29% | 1307.3 hPa | 0 mm | - | 671 W/m² | - |
| 1788556711 | 27.22° C | 28% | 1307.1 hPa | 0 mm | - | 657 W/m² | - |
| 1788556405 | 27.78° C | 28% | 1307.4 hPa | 0 mm | - | 653 W/m² | - |
* Rain latest hour (hover to see other rain measurements)
** Current wind speed in m/s (hover to see current wind gust speed)